createdAt,value
2023-03-30T00:00:01.105Z,55.89
2023-03-30T00:01:12.294Z,55.82
2023-03-30T00:02:18.910Z,55.89
2023-03-30T00:03:23.204Z,55.84
2023-03-30T00:04:27.588Z,55.93
2023-03-30T00:05:30.304Z,55.93
2023-03-30T00:06:34.356Z,55.92
2023-03-30T00:07:42.445Z,56.01
2023-03-30T00:08:44.735Z,55.93
2023-03-30T00:09:47.096Z,56.00
2023-03-30T00:10:50.582Z,56.02
2023-03-30T00:11:55.099Z,56.01
2023-03-30T00:12:58.298Z,56.04
2023-03-30T00:14:01.783Z,55.97
2023-03-30T00:15:09.730Z,56.14
2023-03-30T00:16:13.927Z,56.07
2023-03-30T00:17:16.478Z,56.17
2023-03-30T00:18:18.778Z,56.10
2023-03-30T00:19:21.848Z,56.28
2023-03-30T00:20:25.609Z,56.25
2023-03-30T00:21:28.410Z,56.31
2023-03-30T00:22:35.002Z,56.33
2023-03-30T00:23:40.795Z,56.31
2023-03-30T00:24:43.052Z,56.29
2023-03-30T00:25:45.861Z,56.26
2023-03-30T00:26:48.259Z,56.43
2023-03-30T00:27:50.718Z,56.47
2023-03-30T00:28:52.984Z,56.47
2023-03-30T00:29:55.254Z,56.42
2023-03-30T00:30:58.910Z,56.38
2023-03-30T00:32:01.355Z,56.39
2023-03-30T00:33:04.420Z,56.37
2023-03-30T00:34:07.041Z,56.53
2023-03-30T00:35:10.841Z,56.45
2023-03-30T00:36:13.978Z,56.50
2023-03-30T00:37:16.782Z,56.45
2023-03-30T00:38:19.166Z,56.47
2023-03-30T00:39:23.395Z,56.42
2023-03-30T00:40:25.743Z,56.49
2023-03-30T00:41:28.389Z,56.46
2023-03-30T00:42:30.984Z,56.44
2023-03-30T00:43:33.866Z,56.47
2023-03-30T00:45:18.640Z,56.31
2023-03-30T00:46:23.045Z,56.49
2023-03-30T00:47:26.300Z,56.41
2023-03-30T00:48:40.908Z,56.57
2023-03-30T00:49:45.422Z,56.58
2023-03-30T00:50:58.931Z,56.45
2023-03-30T00:52:02.615Z,56.59
2023-03-30T00:53:12.295Z,56.57
2023-03-30T00:54:18.652Z,56.59
2023-03-30T00:55:24.665Z,56.67
2023-03-30T00:56:30.330Z,56.65
2023-03-30T00:57:34.091Z,56.58
2023-03-30T00:58:38.807Z,56.68
2023-03-30T00:59:41.365Z,56.67
2023-03-30T01:00:47.421Z,56.67
2023-03-30T01:01:54.017Z,56.73
2023-03-30T01:03:04.636Z,56.83
2023-03-30T01:04:09.209Z,56.86
2023-03-30T01:05:12.058Z,56.81
2023-03-30T01:06:18.249Z,56.85
2023-03-30T01:07:24.387Z,56.91
2023-03-30T01:08:32.802Z,56.88
2023-03-30T01:09:35.727Z,56.91
2023-03-30T01:10:38.023Z,56.99
2023-03-30T01:11:41.120Z,56.87
2023-03-30T01:12:44.483Z,56.92
2023-03-30T01:13:51.815Z,57.01
2023-03-30T01:14:56.802Z,56.86
2023-03-30T01:16:01.597Z,56.87
2023-03-30T01:17:26.640Z,56.93
2023-03-30T01:18:55.305Z,56.93
2023-03-30T01:20:18.305Z,57.10
2023-03-30T01:21:48.724Z,57.06
2023-03-30T01:23:11.562Z,57.03
2023-03-30T01:24:16.168Z,57.11
2023-03-30T01:25:21.455Z,57.13
2023-03-30T01:26:55.898Z,57.19
2023-03-30T01:28:17.774Z,57.17
2023-03-30T01:29:27.780Z,57.26
2023-03-30T01:30:55.876Z,57.27
2023-03-30T01:32:35.232Z,57.25
2023-03-30T01:33:54.715Z,57.17
2023-03-30T01:35:22.193Z,57.24
2023-03-30T01:36:47.415Z,57.23
2023-03-30T01:38:02.963Z,57.23
2023-03-30T01:39:18.025Z,57.36
2023-03-30T01:40:33.772Z,57.40
2023-03-30T01:41:58.840Z,57.40
2023-03-30T01:43:08.702Z,57.38
2023-03-30T01:44:19.361Z,57.46
2023-03-30T01:45:55.150Z,57.48
2023-03-30T01:47:06.594Z,57.48
2023-03-30T01:48:18.689Z,57.53
2023-03-30T01:49:32.524Z,57.62
2023-03-30T01:50:41.344Z,57.65
2023-03-30T01:51:55.218Z,57.72
2023-03-30T01:53:08.798Z,57.66
2023-03-30T01:54:18.542Z,57.67
2023-03-30T01:56:05.492Z,57.64
2023-03-30T01:57:15.197Z,57.81
2023-03-30T01:58:57.909Z,57.80
2023-03-30T02:00:13.329Z,57.91
2023-03-30T02:01:20.884Z,57.85
2023-03-30T02:02:28.452Z,57.93
2023-03-30T02:03:34.391Z,57.91
2023-03-30T02:04:40.833Z,57.94
2023-03-30T02:05:47.106Z,58.01
2023-03-30T02:06:58.869Z,58.09
2023-03-30T02:08:08.197Z,57.98
2023-03-30T02:09:16.375Z,58.44
2023-03-30T02:10:21.541Z,57.99
2023-03-30T02:11:26.765Z,58.12
2023-03-30T02:12:31.184Z,58.14
2023-03-30T02:13:36.008Z,58.24
2023-03-30T02:14:41.884Z,58.24
2023-03-30T02:15:50.601Z,58.43
2023-03-30T02:17:23.166Z,58.32
2023-03-30T02:18:26.237Z,58.29
2023-03-30T02:19:28.611Z,58.32
2023-03-30T02:20:33.368Z,58.47
2023-03-30T02:21:35.921Z,58.39
2023-03-30T02:22:40.959Z,58.49
2023-03-30T02:23:46.463Z,58.69
2023-03-30T02:24:51.937Z,58.51
2023-03-30T02:25:54.410Z,58.57
2023-03-30T02:26:56.774Z,58.62
2023-03-30T02:27:59.101Z,58.48
2023-03-30T02:29:01.571Z,58.52
2023-03-30T02:30:05.426Z,58.47
2023-03-30T02:31:14.991Z,58.62
2023-03-30T02:32:24.980Z,58.67
2023-03-30T02:33:47.157Z,58.73
2023-03-30T02:35:26.807Z,58.70
2023-03-30T02:36:48.291Z,58.63
2023-03-30T02:38:18.183Z,58.64
2023-03-30T02:39:30.352Z,58.66
2023-03-30T02:40:48.035Z,58.63
2023-03-30T02:42:11.370Z,58.77
2023-03-30T02:43:22.679Z,58.68
2023-03-30T02:44:43.668Z,58.65
2023-03-30T02:46:06.727Z,58.70
2023-03-30T02:47:22.460Z,58.67
2023-03-30T02:48:49.618Z,58.89
2023-03-30T02:50:00.345Z,58.96
2023-03-30T02:51:14.906Z,58.95
2023-03-30T02:53:10.613Z,58.83
2023-03-30T02:54:34.897Z,58.92
2023-03-30T02:56:06.951Z,59.08
2023-03-30T02:57:31.354Z,59.02
2023-03-30T02:59:03.806Z,59.13
2023-03-30T03:00:13.382Z,59.17
2023-03-30T03:01:29.034Z,59.23
2023-03-30T03:02:44.191Z,59.23
2023-03-30T03:04:04.851Z,59.29
2023-03-30T03:05:16.817Z,59.38
2023-03-30T03:06:32.519Z,59.40
2023-03-30T03:07:35.485Z,59.28
2023-03-30T03:08:40.586Z,59.43
2023-03-30T03:09:45.089Z,59.59
2023-03-30T03:10:47.612Z,59.63
2023-03-30T03:11:52.259Z,59.64
2023-03-30T03:12:54.667Z,59.61
2023-03-30T03:13:57.361Z,59.58
2023-03-30T03:15:02.161Z,59.62
2023-03-30T03:16:06.401Z,59.63
2023-03-30T03:17:10.024Z,59.67
2023-03-30T03:18:18.889Z,59.78
2023-03-30T03:19:21.722Z,59.73
2023-03-30T03:20:28.820Z,59.68
2023-03-30T03:21:31.322Z,59.73
2023-03-30T03:22:34.112Z,59.72
2023-03-30T03:23:38.338Z,59.75
2023-03-30T03:24:41.950Z,59.76
2023-03-30T03:26:05.209Z,59.66
2023-03-30T03:27:08.961Z,59.85
2023-03-30T03:28:29.387Z,59.82
2023-03-30T03:29:37.747Z,59.84
2023-03-30T03:30:40.347Z,59.80
2023-03-30T03:31:47.527Z,59.74
2023-03-30T03:32:50.923Z,59.88
2023-03-30T03:33:53.811Z,59.94
2023-03-30T03:35:01.600Z,59.93
2023-03-30T03:36:05.979Z,59.97
2023-03-30T03:37:12.186Z,60.12
2023-03-30T03:38:14.715Z,60.17
2023-03-30T03:39:17.518Z,60.20
2023-03-30T03:40:20.323Z,60.14
2023-03-30T03:41:22.972Z,60.15
2023-03-30T03:42:25.373Z,60.09
2023-03-30T03:43:48.082Z,60.04
2023-03-30T03:44:52.573Z,60.23
2023-03-30T03:45:55.634Z,60.19
2023-03-30T03:46:57.922Z,60.15
2023-03-30T03:48:00.300Z,60.23
2023-03-30T03:49:16.216Z,60.13
2023-03-30T03:50:18.941Z,60.20
2023-03-30T03:51:21.203Z,60.43
2023-03-30T03:52:23.794Z,60.31
2023-03-30T03:53:27.813Z,60.32
2023-03-30T03:54:34.882Z,60.28
2023-03-30T03:55:37.648Z,60.30
2023-03-30T03:56:40.014Z,60.35
2023-03-30T03:57:42.491Z,60.31
2023-03-30T03:58:44.822Z,60.38
2023-03-30T03:59:47.090Z,60.23
2023-03-30T04:00:50.047Z,60.34
2023-03-30T04:01:52.446Z,60.29
2023-03-30T04:02:55.102Z,60.31
2023-03-30T04:04:02.021Z,60.31
2023-03-30T04:05:04.610Z,60.36
2023-03-30T04:06:07.182Z,60.30
2023-03-30T04:07:12.045Z,60.36
2023-03-30T04:08:14.358Z,60.34
2023-03-30T04:09:17.424Z,60.21
2023-03-30T04:10:46.397Z,60.33
2023-03-30T04:12:11.770Z,60.22
2023-03-30T04:13:35.689Z,60.17
2023-03-30T04:15:07.908Z,60.06
2023-03-30T04:16:33.049Z,60.08
2023-03-30T04:18:00.230Z,60.13
2023-03-30T04:19:19.852Z,60.13
2023-03-30T04:20:30.275Z,60.08
2023-03-30T04:21:49.753Z,59.99
2023-03-30T04:23:22.173Z,60.02
2023-03-30T04:24:57.112Z,60.14
2023-03-30T04:26:17.935Z,60.13
2023-03-30T04:27:31.277Z,60.13
2023-03-30T04:28:56.093Z,60.15
2023-03-30T04:30:25.239Z,60.21
2023-03-30T04:31:47.288Z,60.28
2023-03-30T04:33:12.322Z,60.12
2023-03-30T04:34:43.865Z,60.24
2023-03-30T04:35:55.134Z,60.21
2023-03-30T04:37:18.392Z,60.20
2023-03-30T04:39:01.030Z,60.24
2023-03-30T04:40:22.650Z,60.17
2023-03-30T04:41:33.873Z,60.17
2023-03-30T04:42:50.153Z,60.23
2023-03-30T04:44:08.832Z,60.29
2023-03-30T04:45:21.725Z,60.27
2023-03-30T04:46:44.304Z,60.42
2023-03-30T04:48:06.708Z,60.24
2023-03-30T04:49:29.021Z,60.37
2023-03-30T04:50:54.375Z,60.35
2023-03-30T04:52:20.553Z,60.31
2023-03-30T04:53:33.501Z,60.45
2023-03-30T04:54:54.608Z,60.45
2023-03-30T04:56:22.793Z,60.37
2023-03-30T04:57:48.163Z,60.30
2023-03-30T04:59:25.798Z,60.40
2023-03-30T05:00:48.444Z,60.29
2023-03-30T05:02:08.002Z,60.30
2023-03-30T05:03:37.052Z,60.41
2023-03-30T05:04:59.271Z,60.38
2023-03-30T05:06:21.939Z,60.42
2023-03-30T05:07:46.716Z,60.41
2023-03-30T05:08:55.737Z,60.42
2023-03-30T05:10:18.859Z,60.41
2023-03-30T05:11:39.901Z,60.48
2023-03-30T05:13:00.229Z,60.53
2023-03-30T05:14:14.714Z,60.54
2023-03-30T05:15:36.568Z,60.58
2023-03-30T05:16:59.005Z,60.61
2023-03-30T05:18:13.052Z,60.58
2023-03-30T05:19:30.820Z,60.62
2023-03-30T05:20:49.941Z,60.68
2023-03-30T05:22:09.908Z,60.64
2023-03-30T05:23:33.082Z,60.62
2023-03-30T05:24:58.780Z,60.72
2023-03-30T05:26:16.423Z,60.73
2023-03-30T05:27:21.746Z,60.66
2023-03-30T05:29:00.416Z,60.61
2023-03-30T05:30:31.887Z,60.74
2023-03-30T05:32:00.188Z,60.73
2023-03-30T05:33:38.209Z,60.97
2023-03-30T05:34:59.251Z,60.85
2023-03-30T05:36:26.072Z,60.77
2023-03-30T05:37:39.633Z,60.84
2023-03-30T05:38:57.385Z,60.79
2023-03-30T05:40:22.083Z,60.86
2023-03-30T05:41:47.500Z,60.96
2023-03-30T05:43:11.737Z,60.99
2023-03-30T05:44:40.564Z,60.96
2023-03-30T05:45:54.895Z,60.95
2023-03-30T05:47:26.665Z,60.99
2023-03-30T05:48:42.728Z,61.07
2023-03-30T05:49:53.761Z,61.12
2023-03-30T05:51:03.193Z,61.22
2023-03-30T05:52:17.680Z,61.12
2023-03-30T05:53:38.235Z,61.14
2023-03-30T05:54:58.030Z,61.23
2023-03-30T05:56:19.455Z,61.27
2023-03-30T05:57:30.924Z,61.21
2023-03-30T05:58:53.505Z,61.20
2023-03-30T06:00:21.366Z,61.25
2023-03-30T06:01:37.862Z,61.24
2023-03-30T06:02:40.830Z,61.36
2023-03-30T06:03:48.839Z,61.40
2023-03-30T06:04:52.466Z,61.50
2023-03-30T06:05:54.879Z,61.29
2023-03-30T06:06:58.489Z,61.23
2023-03-30T06:08:01.646Z,61.22
2023-03-30T06:09:05.237Z,61.30
2023-03-30T06:10:09.774Z,61.15
2023-03-30T06:11:14.066Z,61.14
2023-03-30T06:12:23.412Z,61.13
2023-03-30T06:13:25.978Z,61.20
2023-03-30T06:14:28.533Z,61.13
2023-03-30T06:16:01.441Z,61.16
2023-03-30T06:17:08.381Z,60.98
2023-03-30T06:18:14.079Z,61.01
2023-03-30T06:19:22.308Z,61.02
2023-03-30T06:20:26.301Z,60.95
2023-03-30T06:21:29.393Z,60.95
2023-03-30T06:23:11.483Z,60.98
2023-03-30T06:24:15.921Z,60.98
2023-03-30T06:25:20.653Z,61.07
2023-03-30T06:26:23.908Z,61.03
2023-03-30T06:27:26.547Z,61.01
2023-03-30T06:28:28.815Z,60.92
2023-03-30T06:29:31.646Z,61.00
2023-03-30T06:30:36.196Z,60.80
2023-03-30T06:31:41.960Z,60.88
2023-03-30T06:33:04.328Z,60.66
2023-03-30T06:34:12.145Z,60.56
2023-03-30T06:35:16.102Z,60.58
2023-03-30T06:36:19.010Z,60.48
2023-03-30T06:37:22.541Z,60.43
2023-03-30T06:38:25.394Z,60.35
2023-03-30T06:39:30.027Z,60.17
2023-03-30T06:40:33.732Z,60.10
2023-03-30T06:41:36.139Z,60.10
2023-03-30T06:42:41.491Z,60.04
2023-03-30T06:44:10.689Z,59.93
2023-03-30T06:45:16.656Z,59.90
2023-03-30T06:46:19.316Z,59.91
2023-03-30T06:47:24.020Z,59.87
2023-03-30T06:48:26.815Z,59.78
2023-03-30T06:49:48.619Z,59.73
2023-03-30T06:51:19.926Z,59.76
2023-03-30T06:52:29.741Z,59.73
2023-03-30T06:53:32.733Z,59.68
2023-03-30T06:54:34.983Z,59.67
2023-03-30T06:55:42.282Z,59.55
2023-03-30T06:56:48.165Z,59.60
2023-03-30T06:57:52.080Z,59.64
2023-03-30T06:58:54.847Z,59.48
2023-03-30T06:59:57.121Z,59.38
2023-03-30T07:01:16.366Z,59.31
2023-03-30T07:02:37.448Z,59.41
2023-03-30T07:03:59.983Z,59.51
2023-03-30T07:05:29.167Z,59.38
2023-03-30T07:06:50.143Z,59.34
2023-03-30T07:07:52.734Z,59.34
2023-03-30T07:08:55.405Z,59.31
2023-03-30T07:10:00.859Z,59.32
2023-03-30T07:11:04.634Z,59.31
2023-03-30T07:12:08.364Z,59.29
2023-03-30T07:13:11.462Z,59.22
2023-03-30T07:14:16.255Z,59.27
2023-03-30T07:15:19.538Z,59.12
2023-03-30T07:16:22.226Z,59.20
2023-03-30T07:17:26.470Z,59.22
2023-03-30T07:18:29.388Z,59.25
2023-03-30T07:19:33.278Z,59.24
2023-03-30T07:20:35.629Z,59.28
2023-03-30T07:21:49.311Z,59.32
2023-03-30T07:22:53.759Z,59.30
2023-03-30T07:23:56.541Z,59.46
2023-03-30T07:25:07.419Z,59.27
2023-03-30T07:26:09.941Z,59.32
2023-03-30T07:27:28.042Z,59.32
2023-03-30T07:28:32.449Z,59.51
2023-03-30T07:29:34.840Z,59.43
2023-03-30T07:30:37.351Z,59.31
2023-03-30T07:31:42.725Z,59.38
2023-03-30T07:32:47.307Z,59.37
2023-03-30T07:33:49.757Z,59.11
2023-03-30T07:34:56.180Z,59.12
2023-03-30T07:36:00.157Z,59.41
2023-03-30T07:37:02.855Z,59.42
2023-03-30T07:38:07.650Z,59.31
2023-03-30T07:39:17.178Z,59.25
2023-03-30T07:40:21.574Z,59.10
2023-03-30T07:41:24.085Z,59.27
2023-03-30T07:42:30.248Z,59.57
2023-03-30T07:43:32.628Z,59.33
2023-03-30T07:44:34.961Z,59.02
2023-03-30T07:45:41.852Z,58.75
2023-03-30T07:46:47.314Z,58.16
2023-03-30T07:48:00.355Z,58.25
2023-03-30T07:49:02.829Z,58.15
2023-03-30T07:50:06.722Z,57.84
2023-03-30T07:51:13.114Z,57.58
2023-03-30T07:52:24.351Z,57.94
2023-03-30T07:53:33.483Z,57.80
2023-03-30T07:54:39.598Z,57.22
2023-03-30T07:55:53.346Z,57.07
2023-03-30T07:57:06.501Z,56.92
2023-03-30T07:58:09.207Z,56.91
2023-03-30T07:59:13.765Z,56.88
2023-03-30T08:00:19.119Z,56.71
2023-03-30T08:01:41.488Z,56.23
2023-03-30T08:03:00.302Z,55.67
2023-03-30T08:04:04.212Z,54.93
2023-03-30T08:05:09.970Z,54.32
2023-03-30T08:06:24.728Z,54.04
2023-03-30T08:07:32.441Z,53.49
2023-03-30T08:08:43.728Z,53.29
2023-03-30T08:09:46.955Z,52.97
2023-03-30T08:10:49.457Z,52.62
2023-03-30T08:11:51.798Z,52.06
2023-03-30T08:12:54.080Z,51.71
2023-03-30T08:13:57.583Z,51.48
2023-03-30T08:15:00.988Z,51.28
2023-03-30T08:16:04.113Z,51.15
2023-03-30T08:17:06.739Z,50.90
2023-03-30T08:18:09.102Z,50.51
2023-03-30T08:19:13.114Z,50.18
2023-03-30T08:20:16.249Z,50.21
2023-03-30T08:21:18.550Z,49.03
2023-03-30T08:22:21.218Z,49.12
2023-03-30T08:23:23.769Z,49.19
2023-03-30T08:24:26.103Z,49.35
2023-03-30T08:25:28.651Z,49.04
2023-03-30T08:26:31.176Z,48.83
2023-03-30T08:27:34.376Z,48.86
2023-03-30T08:28:36.843Z,48.85
2023-03-30T08:29:39.993Z,48.69
2023-03-30T08:30:42.508Z,48.60
2023-03-30T08:31:45.817Z,48.60
2023-03-30T08:32:49.028Z,48.45
2023-03-30T08:33:51.317Z,48.62
2023-03-30T08:34:55.296Z,48.48
2023-03-30T08:35:57.726Z,48.30
2023-03-30T08:37:02.400Z,48.60
2023-03-30T08:38:04.773Z,48.44
2023-03-30T08:39:07.019Z,48.02
2023-03-30T08:40:12.093Z,48.15
2023-03-30T08:41:39.210Z,48.41
2023-03-30T08:42:53.209Z,48.32
2023-03-30T08:44:10.176Z,48.19
2023-03-30T08:45:13.425Z,48.29
2023-03-30T08:46:18.468Z,47.92
2023-03-30T08:47:36.717Z,48.10
2023-03-30T08:48:42.697Z,48.19
2023-03-30T08:49:58.613Z,47.90
2023-03-30T08:51:11.153Z,47.81
2023-03-30T08:52:23.208Z,48.34
2023-03-30T08:53:28.676Z,48.03
2023-03-30T08:54:33.196Z,48.12
2023-03-30T08:56:20.056Z,48.69
2023-03-30T08:57:42.815Z,48.29
2023-03-30T08:58:59.314Z,48.16
2023-03-30T09:00:22.428Z,48.34
2023-03-30T09:01:57.094Z,48.26
2023-03-30T09:03:32.392Z,48.45
2023-03-30T09:04:57.361Z,48.55
2023-03-30T09:06:09.479Z,48.08
2023-03-30T09:07:19.760Z,48.09
2023-03-30T09:08:29.432Z,48.23
2023-03-30T09:09:41.886Z,48.12
2023-03-30T09:10:51.792Z,48.19
2023-03-30T09:12:02.543Z,48.21
2023-03-30T09:13:06.668Z,48.37
2023-03-30T09:14:19.382Z,48.37
2023-03-30T09:15:37.485Z,48.41
2023-03-30T09:16:58.994Z,48.45
2023-03-30T09:18:21.051Z,48.54
2023-03-30T09:19:31.557Z,48.74
2023-03-30T09:20:38.209Z,48.45
2023-03-30T09:21:40.824Z,48.94
2023-03-30T09:22:45.046Z,48.53
2023-03-30T09:23:47.359Z,48.70
2023-03-30T09:24:51.756Z,48.88
2023-03-30T09:25:54.045Z,48.69
2023-03-30T09:27:09.748Z,48.99
2023-03-30T09:28:53.795Z,49.09
2023-03-30T09:30:04.952Z,48.96
2023-03-30T09:31:45.348Z,49.39
2023-03-30T09:33:06.688Z,49.56
2023-03-30T09:34:36.217Z,49.61
2023-03-30T09:35:45.034Z,49.49
2023-03-30T09:37:09.681Z,50.01
2023-03-30T09:38:14.021Z,50.23
2023-03-30T09:39:22.226Z,50.31
2023-03-30T09:41:01.274Z,50.46
2023-03-30T09:42:17.242Z,50.74
2023-03-30T09:43:33.477Z,51.01
2023-03-30T09:44:58.749Z,51.22
2023-03-30T09:46:10.943Z,51.21
2023-03-30T09:47:27.948Z,51.57
2023-03-30T09:48:38.326Z,51.43
2023-03-30T09:49:40.825Z,51.60
2023-03-30T09:50:46.623Z,51.46
2023-03-30T09:52:04.543Z,51.42
2023-03-30T09:53:25.111Z,51.65
2023-03-30T09:54:35.486Z,51.80
2023-03-30T09:55:38.448Z,51.71
2023-03-30T09:56:47.132Z,52.07
2023-03-30T09:57:51.293Z,51.82
2023-03-30T09:58:53.863Z,52.19
2023-03-30T09:59:57.413Z,52.07
2023-03-30T10:01:07.825Z,52.27
2023-03-30T10:02:12.902Z,52.42
2023-03-30T10:03:23.565Z,52.50
2023-03-30T10:04:26.002Z,52.60
2023-03-30T10:05:31.645Z,52.31
2023-03-30T10:06:38.778Z,52.53
2023-03-30T10:07:43.639Z,52.72
2023-03-30T10:08:48.394Z,52.84
2023-03-30T10:09:51.703Z,52.75
2023-03-30T10:10:56.032Z,52.86
2023-03-30T10:11:58.534Z,52.99
2023-03-30T10:13:18.244Z,53.14
2023-03-30T10:14:31.778Z,53.09
2023-03-30T10:15:39.359Z,53.35
2023-03-30T10:16:44.303Z,53.30
2023-03-30T10:17:51.692Z,53.69
2023-03-30T10:18:59.413Z,53.56
2023-03-30T10:20:39.751Z,53.60
2023-03-30T10:21:46.399Z,53.51
2023-03-30T10:22:59.385Z,53.76
2023-03-30T10:24:08.330Z,53.76
2023-03-30T10:25:20.185Z,53.86
2023-03-30T10:26:30.869Z,53.76
2023-03-30T10:27:37.619Z,53.93
2023-03-30T10:28:41.476Z,53.77
2023-03-30T10:29:49.174Z,53.91
2023-03-30T10:31:04.621Z,53.91
2023-03-30T10:32:19.146Z,53.81
2023-03-30T10:33:22.803Z,53.99
2023-03-30T10:34:41.670Z,53.81
2023-03-30T10:35:48.222Z,54.03
2023-03-30T10:36:55.072Z,54.07
2023-03-30T10:37:58.859Z,54.01
2023-03-30T10:39:12.346Z,54.16
2023-03-30T10:40:27.428Z,54.03
2023-03-30T10:41:29.979Z,54.23
2023-03-30T10:42:33.840Z,54.40
2023-03-30T10:43:37.007Z,54.13
2023-03-30T10:44:50.793Z,54.11
2023-03-30T10:46:06.368Z,54.52
2023-03-30T10:47:25.408Z,54.48
2023-03-30T10:48:45.189Z,54.38
2023-03-30T10:50:03.589Z,54.44
2023-03-30T10:51:27.625Z,54.46
2023-03-30T10:52:48.752Z,54.18
2023-03-30T10:54:09.854Z,54.51
2023-03-30T10:55:21.823Z,54.39
2023-03-30T10:56:30.196Z,54.34
2023-03-30T10:58:07.548Z,54.15
2023-03-30T10:59:25.578Z,54.18
2023-03-30T11:00:40.961Z,54.32
2023-03-30T11:02:10.930Z,54.17
2023-03-30T11:03:21.363Z,54.30
2023-03-30T11:04:36.389Z,54.18
2023-03-30T11:05:47.879Z,54.16
2023-03-30T11:06:53.545Z,54.27
2023-03-30T11:08:04.648Z,54.33
2023-03-30T11:09:14.769Z,54.26
2023-03-30T11:10:29.881Z,54.22
2023-03-30T11:11:38.072Z,54.00
2023-03-30T11:12:46.145Z,54.11
2023-03-30T11:13:58.470Z,54.04
2023-03-30T11:15:18.442Z,54.23
2023-03-30T11:16:48.000Z,54.14
2023-03-30T11:18:16.788Z,54.09
2023-03-30T11:19:32.319Z,53.93
2023-03-30T11:20:41.595Z,53.77
2023-03-30T11:22:16.344Z,53.96
2023-03-30T11:23:34.378Z,53.87
2023-03-30T11:24:37.007Z,54.13
2023-03-30T11:26:18.048Z,54.21
2023-03-30T11:27:29.600Z,53.96
2023-03-30T11:28:47.802Z,53.99
2023-03-30T11:29:56.215Z,53.90
2023-03-30T11:31:03.550Z,53.87
2023-03-30T11:32:15.042Z,53.90
2023-03-30T11:33:33.642Z,53.86
2023-03-30T11:34:53.715Z,53.88
2023-03-30T11:36:02.798Z,53.81
2023-03-30T11:37:27.429Z,53.76
2023-03-30T11:38:43.130Z,53.78
2023-03-30T11:39:52.335Z,53.80
2023-03-30T11:41:07.504Z,53.66
2023-03-30T11:42:32.772Z,53.92
2023-03-30T11:43:35.168Z,53.55
2023-03-30T11:44:37.502Z,53.79
2023-03-30T11:46:23.704Z,53.75
2023-03-30T11:47:44.973Z,53.74
2023-03-30T11:49:21.926Z,53.40
2023-03-30T11:50:39.056Z,53.15
2023-03-30T11:52:04.753Z,53.40
2023-03-30T11:53:31.548Z,53.17
2023-03-30T11:55:04.766Z,53.09
2023-03-30T11:56:31.774Z,52.95
2023-03-30T11:57:43.674Z,52.97
2023-03-30T11:59:03.115Z,52.78
2023-03-30T12:00:26.361Z,52.58
2023-03-30T12:01:41.372Z,52.71
2023-03-30T12:03:10.060Z,52.87
2023-03-30T12:04:16.062Z,53.01
2023-03-30T12:05:36.927Z,52.74
2023-03-30T12:06:41.956Z,52.63
2023-03-30T12:08:03.176Z,52.57
2023-03-30T12:09:14.554Z,52.37
2023-03-30T12:10:38.807Z,52.24
2023-03-30T12:11:46.690Z,52.15
2023-03-30T12:12:52.501Z,52.11
2023-03-30T12:13:55.069Z,51.78
2023-03-30T12:15:26.851Z,51.78
2023-03-30T12:16:41.674Z,51.34
2023-03-30T12:17:56.372Z,51.29
2023-03-30T12:19:17.254Z,51.03
2023-03-30T12:20:33.092Z,51.13
2023-03-30T12:21:52.618Z,50.92
2023-03-30T12:23:29.438Z,51.27
2023-03-30T12:24:46.713Z,51.07
2023-03-30T12:26:08.373Z,51.07
2023-03-30T12:27:11.838Z,50.43
2023-03-30T12:28:16.624Z,50.36
2023-03-30T12:29:58.513Z,50.12
2023-03-30T12:30:56.682Z,50.00
2023-03-30T12:32:05.133Z,49.93
2023-03-30T12:33:13.795Z,50.00
2023-03-30T12:34:17.118Z,50.13
2023-03-30T12:35:57.168Z,50.05
2023-03-30T12:37:04.809Z,49.09
2023-03-30T12:38:07.194Z,49.30
2023-03-30T12:39:16.609Z,49.11
2023-03-30T12:40:22.855Z,49.31
2023-03-30T12:41:27.502Z,49.19
2023-03-30T12:42:34.917Z,49.63
2023-03-30T12:44:01.384Z,49.37
2023-03-30T12:45:15.782Z,49.19
2023-03-30T12:46:28.356Z,48.92
2023-03-30T12:47:58.437Z,49.14
2023-03-30T12:49:16.002Z,49.24
2023-03-30T12:50:26.281Z,48.83
2023-03-30T12:51:54.861Z,48.59
2023-03-30T12:53:41.209Z,48.59
2023-03-30T12:55:00.205Z,48.43
2023-03-30T12:56:29.160Z,48.71
2023-03-30T12:58:09.390Z,48.62
2023-03-30T12:59:30.634Z,48.85
2023-03-30T13:00:48.123Z,48.41
2023-03-30T13:02:05.812Z,48.42
2023-03-30T13:03:36.847Z,47.99
2023-03-30T13:04:43.319Z,47.79
2023-03-30T13:05:51.719Z,47.81
2023-03-30T13:06:58.496Z,47.80
2023-03-30T13:08:07.052Z,47.90
2023-03-30T13:09:15.342Z,48.31
2023-03-30T13:10:29.879Z,48.35
2023-03-30T13:11:54.187Z,48.23
2023-03-30T13:12:59.729Z,47.76
2023-03-30T13:14:16.762Z,47.36
2023-03-30T13:15:49.182Z,47.11
2023-03-30T13:16:51.588Z,47.08
2023-03-30T13:18:01.011Z,46.71
2023-03-30T13:19:26.874Z,46.80
2023-03-30T13:20:35.028Z,46.51
2023-03-30T13:21:49.952Z,46.79
2023-03-30T13:23:00.192Z,46.79
2023-03-30T13:24:25.024Z,47.19
2023-03-30T13:25:49.331Z,46.76
2023-03-30T13:26:51.848Z,46.23
2023-03-30T13:27:58.733Z,46.27
2023-03-30T13:29:15.424Z,46.38
2023-03-30T13:30:18.244Z,46.06
2023-03-30T13:31:33.299Z,45.96
2023-03-30T13:32:44.595Z,46.14
2023-03-30T13:33:53.486Z,45.84
2023-03-30T13:35:10.326Z,45.54
2023-03-30T13:36:15.673Z,45.81
2023-03-30T13:37:42.780Z,46.02
2023-03-30T13:38:54.134Z,45.78
2023-03-30T13:40:07.493Z,45.92
2023-03-30T13:41:24.763Z,45.84
2023-03-30T13:42:40.982Z,46.20
2023-03-30T13:44:05.769Z,45.89
2023-03-30T13:45:26.874Z,46.13
2023-03-30T13:46:44.427Z,46.04
2023-03-30T13:48:17.760Z,46.25
2023-03-30T13:49:51.257Z,46.66
2023-03-30T13:51:02.627Z,46.47
2023-03-30T13:52:12.359Z,46.31
2023-03-30T13:53:17.849Z,46.11
2023-03-30T13:54:29.658Z,46.05
2023-03-30T13:55:42.069Z,46.14
2023-03-30T13:56:55.327Z,46.04
2023-03-30T13:58:18.462Z,45.70
2023-03-30T13:59:26.292Z,45.21
2023-03-30T14:00:56.991Z,45.70
2023-03-30T14:02:02.105Z,45.91
2023-03-30T14:03:27.504Z,46.09
2023-03-30T14:04:37.412Z,46.01
2023-03-30T14:05:42.419Z,45.70
2023-03-30T14:06:49.609Z,45.95
2023-03-30T14:07:57.570Z,45.66
2023-03-30T14:09:06.002Z,45.61
2023-03-30T14:10:18.801Z,45.68
2023-03-30T14:11:33.636Z,45.22
2023-03-30T14:12:39.948Z,44.83
2023-03-30T14:13:43.774Z,44.72
2023-03-30T14:14:48.645Z,44.76
2023-03-30T14:15:51.903Z,44.98
2023-03-30T14:16:55.893Z,44.64
2023-03-30T14:18:00.515Z,44.38
2023-03-30T14:19:08.254Z,44.33
2023-03-30T14:20:27.679Z,44.26
2023-03-30T14:21:33.462Z,44.38
2023-03-30T14:22:44.342Z,44.21
2023-03-30T14:23:54.696Z,44.51
2023-03-30T14:25:01.136Z,44.57
2023-03-30T14:26:12.517Z,44.70
2023-03-30T14:27:15.969Z,44.87
2023-03-30T14:28:20.799Z,44.57
2023-03-30T14:29:31.411Z,44.74
2023-03-30T14:30:35.058Z,44.92
2023-03-30T14:31:39.672Z,44.96
2023-03-30T14:32:42.459Z,44.65
2023-03-30T14:33:45.857Z,44.69
2023-03-30T14:34:53.071Z,44.80
2023-03-30T14:36:00.419Z,44.99
2023-03-30T14:37:10.232Z,44.61
2023-03-30T14:38:24.722Z,44.76
2023-03-30T14:39:28.263Z,44.13
2023-03-30T14:40:31.795Z,44.23
2023-03-30T14:41:34.129Z,44.40
2023-03-30T14:42:36.515Z,44.29
2023-03-30T14:43:41.741Z,44.22
2023-03-30T14:44:46.144Z,44.41
2023-03-30T14:45:50.824Z,44.58
2023-03-30T14:46:56.239Z,44.24
2023-03-30T14:47:58.897Z,44.58
2023-03-30T14:49:01.735Z,44.53
2023-03-30T14:50:09.390Z,44.17
2023-03-30T14:51:27.492Z,44.56
2023-03-30T14:52:41.636Z,44.62
2023-03-30T14:53:44.300Z,44.52
2023-03-30T14:55:04.284Z,44.33
2023-03-30T14:56:10.349Z,44.42
2023-03-30T14:57:14.710Z,44.51
2023-03-30T14:58:17.828Z,44.45
2023-03-30T14:59:21.059Z,44.26
2023-03-30T15:00:24.937Z,44.38
2023-03-30T15:01:33.651Z,43.89
2023-03-30T15:02:37.806Z,44.13
2023-03-30T15:03:42.127Z,44.44
2023-03-30T15:04:44.654Z,44.23
2023-03-30T15:05:46.967Z,44.33
2023-03-30T15:06:49.409Z,44.22
2023-03-30T15:07:53.484Z,43.95
2023-03-30T15:09:01.850Z,43.67
2023-03-30T15:10:04.640Z,43.92
2023-03-30T15:11:13.635Z,43.77
2023-03-30T15:12:23.081Z,44.05
2023-03-30T15:13:41.927Z,43.84
2023-03-30T15:14:44.284Z,43.92
2023-03-30T15:15:47.171Z,43.95
2023-03-30T15:16:53.882Z,44.36
2023-03-30T15:17:57.338Z,45.41
2023-03-30T15:19:05.371Z,45.92
2023-03-30T15:20:08.604Z,45.94
2023-03-30T15:21:13.461Z,46.18
2023-03-30T15:22:37.138Z,46.41
2023-03-30T15:23:43.463Z,46.61
2023-03-30T15:24:45.738Z,46.67
2023-03-30T15:25:49.328Z,47.00